CheckWX is a tool to help pilots better visualize weather data.  It is not intended as a substitute for an official pre-flight weather briefing.

10:45:33 UTC

KXBP METAR
Bridgeport Municipal Airport
Bridgeport, Texas, USA
Current

31 mins ago

KXBP 041015Z AUTO 01008KT 10SM SCT012 OVC019 04/02 A3010 RMK AO2 T00420022
Observed
Apr-4 @ 10:15 UTC
Wind
  • 010° at 8 KTS
Visibility
Flight Rules
MVFR
Cloud Levels
  • Scattered at 1,200' AGL
  • Overcast at 1,900' AGL
Temperature
C / 39°F
Dewpoint
C / 36°F
Humidity
87%
Altimeter
30.1" Hg
Pressure
1019.32 hPa
Previous

51 mins ago

KXBP 040955Z AUTO 01009KT 10SM SCT012 BKN019 OVC030 04/02 A3009 RMK AO2 T00420021
Observed
Apr-4 @ 09:55 UTC
Wind
  • 010° at 9 KTS
Visibility
Flight Rules
MVFR
Cloud Levels
  • Scattered at 1,200' AGL
  • Broken at 1,900' AGL
  • Overcast at 3,000' AGL
Temperature
C / 39°F
Dewpoint
C / 36°F
Humidity
87%
Altimeter
30.09" Hg
Pressure
1018.92 hPa
Previous

1 hour ago

KXBP 040935Z AUTO 35007KT 10SM SCT012 BKN019 OVC030 04/02 A3010 RMK AO2 T00420023
Observed
Apr-4 @ 09:35 UTC
Wind
  • 350° at 7 KTS
Visibility
Flight Rules
MVFR
Cloud Levels
  • Scattered at 1,200' AGL
  • Broken at 1,900' AGL
  • Overcast at 3,000' AGL
Temperature
C / 39°F
Dewpoint
C / 36°F
Humidity
87%
Altimeter
30.1" Hg
Pressure
1019.32 hPa